Date,TemperatureHighF,TemperatureAvgF,TemperatureLowF,DewpointHighF,DewpointAvgF,DewpointLowF,HumidityHigh,HumidityAvg,HumidityLow,PressureMaxIn,PressureMinIn,WindSpeedMaxMPH,WindSpeedAvgMPH,GustSpeedMaxMPH,PrecipitationSumIn
2013-1-1,27,15,4,24,9,-2,86,77,72,29.97,29.76,14,1,15,0.00
2013-1-2,16,8,-4,11,2,-11,84,76,67,30.19,29.88,7,0,7,0.00
2013-1-3,20,2,-12,16,-3,-18,85,78,72,30.19,29.91,5,0,5,0.00
2013-1-4,27,24,20,23,21,-25,86,85,83,29.91,29.81,16,1,16,0.00
2013-1-5,29,24,16,23,18,10,85,77,69,30.24,29.87,15,1,15,0.00
2013-1-6,30,25,16,27,21,11,87,84,77,30.15,29.91,9,0,9,0.00
2013-1-7,31,23,15,27,17,9,87,78,68,30.35,30.00,6,0,6,0.02
2013-1-8,33,23,11,26,18,5,85,79,74,30.38,30.19,9,0,9,0.00
2013-1-9,36,24,9,30,19,4,88,80,77,30.37,29.97,21,1,21,0.08
2013-1-10,34,29,20,27,22,14,82,77,68,30.56,30.14,16,0,16,0.02
2013-1-11,33,25,16,28,20,11,86,81,74,30.53,30.10,10,0,10,0.02
2013-1-12,42,34,32,39,31,28,90,88,86,30.16,30.09,0,0,0,0.02
2013-1-13,43,35,32,40,32,29,90,89,89,30.15,29.95,0,0,0,0.02
2013-1-14,46,34,28,43,29,8,92,82,74,30.34,29.86,13,1,13,0.00
2013-1-15,32,27,24,22,19,17,79,72,62,30.36,30.23,8,0,8,0.02
2013-1-16,29,27,24,24,21,18,83,80,75,30.23,29.82,4,0,4,0.00
2013-1-17,28,19,8,24,11,-3,85,69,52,30.16,29.83,10,0,10,0.00
2013-1-18,20,10,-2,8,-1,-11,67,60,50,30.33,30.11,12,1,12,0.00
2013-1-19,38,29,18,27,19,8,76,66,60,30.16,29.75,15,1,15,0.00
2013-1-20,40,27,8,28,17,0,79,67,56,29.99,29.46,20,3,20,0.02
2013-1-21,15,10,4,7,3,-4,75,70,67,30.02,29.78,7,0,7,0.00
2013-1-22,13,8,-1,7,0,-11,76,70,62,30.04,29.76,10,0,10,0.00
2013-1-23,6,-4,-14,-6,-15,-22,68,60,49,30.13,30.02,7,0,7,0.00
2013-1-24,10,-6,-18,-6,-16,-26,69,59,48,30.35,30.09,6,0,6,0.00
2013-1-25,19,3,-11,5,-8,-20,69,61,51,30.36,30.04,2,0,2,0.00
2013-1-26,17,6,-5,3,-4,-13,70,62,51,30.29,30.04,2,0,2,0.00
2013-1-27,25,11,-1,9,-1,-9,72,60,42,30.47,30.29,0,0,0,0.00
2013-1-28,21,16,8,16,8,-3,78,70,60,30.42,29.97,0,0,0,0.00
2013-1-29,32,27,21,28,22,16,86,82,78,30.13,29.96,0,0,0,0.10
2013-1-30,53,43,32,49,40,28,91,88,85,29.97,29.34,16,2,16,0.59
2013-1-31,49,30,16,46,26,10,90,83,77,29.60,29.01,20,4,20,0.65
2013-2-1,16,12,8,10,6,1,80,76,70,30.10,29.60,50,1,50,0.00
2013-2-2,15,10,5,9,4,0,80,77,74,30.14,29.98,9,0,9,0.00
2013-2-3,26,12,-2,17,5,-8,81,75,66,30.00,29.76,7,0,7,0.02
2013-2-4,19,12,5,10,3,-3,80,68,54,29.91,29.76,18,1,18,0.00
2013-2-5,28,12,-3,12,2,-10,75,64,51,29.97,29.86,4,0,4,0.00
2013-2-6,24,17,7,16,9,-2,80,69,58,30.33,29.86,10,0,10,0.00
2013-2-7,22,11,0,10,2,-19,72,64,37,30.47,30.29,4,0,4,0.00
2013-2-8,23,19,16,17,13,5,81,76,62,30.29,29.89,8,0,8,0.00
2013-2-9,25,14,-1,14,5,-11,80,67,54,30.35,29.93,8,0,8,0.00
2013-2-10,39,12,-11,22,1,-19,75,61,45,30.43,30.20,0,0,0,0.14
2013-2-11,34,28,14,30,21,5,85,75,62,30.20,29.66,12,1,12,0.02
2013-2-12,30,28,25,25,23,19,86,82,79,29.92,29.66,13,2,13,0.00
2013-2-13,30,27,24,24,21,18,84,79,72,29.89,29.78,7,0,7,0.00
2013-2-14,38,27,19,28,20,14,82,75,65,29.95,29.80,2,0,2,0.02
2013-2-15,34,30,24,28,24,17,85,78,73,30.02,29.84,12,1,12,0.04
2013-2-16,33,23,13,18,13,3,78,67,53,30.02,29.91,6,0,6,0.00
2013-2-17,17,8,3,5,-1,-6,71,64,55,29.96,29.76,12,0,12,0.00
2013-2-18,26,10,-3,8,-2,-10,72,59,43,30.17,29.96,8,0,8,0.00
2013-2-19,37,22,7,24,13,-4,79,68,56,30.11,29.68,11,0,11,0.00
2013-2-20,26,20,14,20,12,7,79,73,63,29.86,29.69,14,1,14,0.00
2013-2-21,14,10,3,8,3,-4,78,73,67,30.40,29.85,8,0,8,0.00
2013-2-22,33,22,7,24,14,1,81,72,65,30.41,30.18,5,0,5,0.04
2013-2-23,34,30,28,28,24,20,84,78,70,30.19,29.88,3,0,3,0.02
2013-2-24,31,29,26,27,25,7,84,82,79,30.00,29.83,2,0,2,0.00
2013-2-25,33,29,23,27,24,18,84,81,78,30.26,30.00,2,0,2,0.04
2013-2-26,39,30,15,30,23,10,84,75,64,30.30,30.04,3,0,3,0.04
2013-2-27,36,32,29,31,27,23,86,82,73,30.04,29.62,12,0,12,0.19
2013-2-28,36,32,30,30,27,26,86,82,77,29.70,29.58,8,0,8,0.06
2013-3-1,31,29,24,26,24,20,84,82,79,29.85,29.69,7,0,7,0.02
2013-3-2,24,20,17,20,15,12,83,81,80,29.86,29.81,5,0,5,0.00
2013-3-3,25,19,15,18,13,10,82,79,75,29.82,29.76,8,0,8,0.00
2013-3-4,23,19,16,17,14,12,84,81,76,29.97,29.78,10,0,10,0.00
2013-3-5,39,26,18,30,20,14,83,78,69,30.11,29.96,5,0,5,0.08
2013-3-6,24,21,20,18,15,14,77,75,74,30.10,30.08,0,0,0,0.00
2013-3-12,46,38,31,42,34,28,87,85,80,29.95,29.82,15,2,15,0.84
2013-3-13,34,30,26,28,26,20,87,82,72,29.91,29.81,7,0,7,0.08
2013-3-14,26,18,14,20,11,6,79,74,67,29.95,29.80,14,1,14,0.00
2013-3-15,30,20,7,24,14,1,81,77,73,29.96,29.62,12,0,12,0.02
2013-3-16,28,20,11,17,11,4,79,70,58,29.95,29.81,4,0,4,0.02
2013-3-17,28,16,4,12,4,-3,77,61,44,30.33,29.93,8,0,8,0.02
2013-3-18,34,17,-2,16,3,-12,70,56,43,30.40,30.01,4,0,4,0.00
2013-3-19,31,27,24,25,21,14,82,77,63,30.01,29.73,11,0,11,0.00
2013-3-20,29,23,18,22,16,13,81,76,69,29.79,29.73,10,1,10,0.00
2013-3-21,29,22,15,20,14,0,80,72,62,29.78,29.69,61,0,61,0.02
2013-3-22,28,20,13,20,13,5,80,74,68,29.82,29.69,13,0,13,0.00
2013-3-23,30,25,22,21,19,17,83,78,67,29.91,29.78,12,1,12,0.00
2013-3-24,34,28,24,24,20,15,78,72,66,29.94,29.84,4,0,4,0.06
2013-3-25,37,27,15,26,18,8,80,70,61,29.84,29.64,7,0,7,0.00
2013-3-26,41,33,28,25,22,17,75,66,49,29.91,29.71,7,0,7,0.00
2013-3-27,40,34,27,28,24,17,74,66,57,30.02,29.88,10,0,10,0.00
2013-3-28,42,34,30,34,27,7,81,75,70,30.15,29.99,7,0,7,0.02
2013-3-29,39,34,31,32,28,25,83,77,69,30.16,30.11,8,0,8,0.02
2013-3-30,52,36,24,27,23,17,82,60,36,30.18,30.11,9,0,9,0.00
2013-3-31,49,38,22,32,26,-26,77,63,44,30.15,29.75,14,2,14,0.02
2013-4-1,37,32,22,32,24,10,84,71,53,29.87,29.63,19,2,19,0.14
2013-4-2,26,21,17,16,11,-28,72,65,60,29.98,29.84,17,2,17,0.00
2013-4-3,34,25,17,15,12,9,72,58,43,30.27,29.97,19,1,19,0.00
2013-4-4,49,32,18,25,18,11,75,57,35,30.30,29.97,10,0,10,0.00
2013-4-5,39,33,26,26,20,-30,68,59,54,30.06,29.89,7,0,7,0.00
2013-4-6,45,30,18,18,12,8,66,49,31,30.30,30.05,8,0,8,0.00
2013-4-7,59,44,30,36,26,13,65,50,37,30.23,29.86,15,2,15,0.02
2013-4-8,62,45,35,38,31,27,73,60,37,30.19,29.97,11,0,11,0.02
2013-4-9,46,42,38,42,35,32,85,79,67,30.13,29.86,15,0,15,0.24
2013-4-10,46,40,36,41,35,9,87,84,31,30.09,29.97,0,0,0,0.41
2013-4-11,38,33,31,34,27,22,85,77,68,30.17,30.00,0,0,0,0.02
2013-4-12,34,31,29,29,25,19,86,79,62,30.15,29.78,14,0,14,0.12
2013-4-13,38,34,32,34,31,28,87,86,83,29.97,29.82,10,0,10,0.33
2013-4-14,36,33,29,30,28,23,88,81,71,30.26,29.94,9,0,9,0.04
2013-4-15,62,45,27,45,33,21,84,65,47,30.35,30.23,11,1,11,0.00
2013-4-16,56,50,41,47,42,32,87,75,64,30.27,30.03,20,2,20,0.35
2013-4-17,57,43,31,38,32,24,86,68,44,30.39,30.20,10,0,10,0.00
2013-4-18,62,46,30,46,34,22,79,65,48,30.38,29.98,21,4,21,0.00
2013-4-19,68,60,54,55,51,46,78,72,60,29.99,29.58,18,4,18,0.02
2013-4-27,57,46,30,39,32,-26,78,58,46,30.48,30.35,6,0,6,0.19
2013-4-28,70,52,30,47,36,23,82,56,38,30.37,30.18,7,0,7,0.19
2013-4-29,56,51,47,42,39,34,75,64,45,30.25,30.19,11,1,11,0.19
2013-4-30,70,56,47,52,44,38,79,67,49,30.35,30.24,61,0,61,0.19
2013-5-1,81,60,39,51,41,32,83,55,30,30.50,30.35,8,0,8,0.19
2013-5-2,83,62,40,48,40,30,71,47,27,30.52,30.36,6,0,6,0.19
2013-5-3,79,62,50,45,36,30,52,39,24,30.48,30.37,8,0,8,0.19
2013-5-4,82,60,40,48,37,27,70,45,28,30.41,30.26,7,0,7,0.19
2013-5-5,83,61,40,48,38,29,71,45,25,30.32,30.19,6,0,6,0.19
2013-5-6,83,62,40,43,34,28,66,39,18,30.28,30.12,8,0,8,0.19
2013-5-7,82,61,40,52,39,26,72,45,29,30.25,30.12,8,0,8,0.19
2013-5-8,74,59,45,54,46,34,77,62,45,30.24,30.09,10,0,10,0.19
2013-5-9,74,59,50,54,49,44,83,70,45,30.09,29.96,7,0,7,0.19
2013-5-10,73,60,51,57,51,46,85,71,50,30.09,29.90,8,0,8,0.19
2013-5-11,61,55,46,55,49,40,85,80,70,29.91,29.75,11,1,11,0.22
2013-5-12,50,44,35,40,34,27,83,69,47,29.86,29.74,14,1,14,0.19
2013-5-13,41,36,32,31,28,26,82,72,62,30.11,29.85,15,1,15,0.19
2013-5-14,55,40,29,33,28,9,80,63,41,30.16,30.07,9,0,9,0.19
2013-5-15,58,44,29,49,34,20,77,68,57,30.10,29.68,10,0,10,0.19
2013-5-16,68,56,46,41,38,34,69,53,34,30.01,29.76,19,1,19,0.19
2013-5-17,66,52,43,42,36,31,73,56,38,30.32,30.01,8,0,8,0.19
2013-5-18,77,55,36,46,36,27,80,52,29,30.38,30.25,6,0,6,0.19
2013-5-19,62,53,42,50,43,0,80,69,52,30.33,30.17,9,1,9,0.19
2013-5-20,72,61,56,62,55,50,85,80,71,30.17,30.07,7,0,7,0.19
2013-5-21,81,66,56,64,58,50,90,74,54,30.07,29.88,7,0,7,0.59
2013-5-22,82,69,59,66,60,53,87,74,54,29.96,29.84,11,1,11,0.28
2013-5-23,71,64,59,62,58,19,85,80,70,29.91,29.84,8,1,8,0.55
2013-5-24,59,44,39,55,40,35,88,85,83,30.13,29.83,2,0,2,0.76
2013-5-25,40,39,38,37,36,34,89,88,87,30.11,30.04,6,0,6,0.85
2013-5-26,52,43,38,43,38,35,89,83,65,30.17,29.99,9,0,9,0.19
2013-5-27,67,50,37,43,37,32,86,63,37,30.28,30.17,61,0,61,0.19
2013-5-28,72,54,36,49,39,28,81,59,40,30.29,30.15,8,0,8,0.19
2013-5-29,70,61,55,63,55,46,86,81,64,30.15,30.04,7,0,7,0.19
2013-5-30,84,70,60,65,60,55,89,72,50,30.21,30.12,8,0,8,0.19
2013-5-31,88,72,57,66,58,51,86,64,37,30.22,30.07,10,0,10,0.19
2013-6-1,84,69,59,66,59,52,83,70,52,30.09,29.94,12,0,12,0.39
2013-6-2,72,66,60,64,60,-27,89,79,67,29.99,29.81,7,0,7,0.51
2013-6-3,64,56,47,54,46,36,84,68,50,30.02,29.91,11,0,11,0.19
2013-6-4,67,53,43,48,41,36,80,63,45,30.22,30.01,11,0,11,0.19
2013-6-5,72,55,41,48,40,33,79,60,38,30.29,30.20,5,0,5,0.19
2013-6-6,61,55,49,52,46,39,86,73,63,30.24,30.09,0,0,0,0.35
2013-6-7,56,53,50,52,48,46,87,85,83,30.08,29.94,6,0,6,0.65
2013-6-8,62,56,51,56,51,9,89,85,78,30.14,29.87,8,0,8,0.19
2013-6-9,73,61,54,56,52,-24,86,73,50,30.30,30.13,9,0,9,0.19
2013-6-10,68,57,47,56,50,41,87,77,62,30.31,29.96,7,0,7,0.35
2013-6-11,62,57,53,58,53,50,90,88,86,29.96,29.68,7,0,7,1.02
2013-6-12,70,58,51,56,51,47,90,78,57,29.97,29.78,6,0,6,0.19
2013-6-13,60,54,-22,53,48,-25,87,82,78,29.96,29.77,2,0,2,0.19
2013-6-14,73,59,48,58,50,7,89,73,54,30.02,29.84,7,0,7,0.19
2013-6-15,72,54,44,49,43,37,83,68,42,30.09,30.02,10,0,10,0.19
2013-6-16,64,58,49,55,50,40,84,74,64,30.06,29.81,7,0,7,0.19
2013-6-17,70,62,56,59,55,50,88,79,61,30.07,29.90,7,0,7,0.19
2013-6-18,70,58,50,56,48,41,85,71,48,30.12,30.02,0,0,0,0.19
2013-6-19,74,55,41,47,41,34,82,60,36,30.28,30.11,7,0,7,0.19
2013-6-20,79,59,42,52,42,34,80,58,34,30.35,30.28,8,0,8,0.19
2013-6-21,82,64,46,59,48,38,80,60,41,30.37,30.31,8,0,8,0.19
2013-6-22,79,66,54,62,55,46,80,68,53,30.33,30.19,7,0,7,0.19
2013-6-23,84,73,64,71,64,57,87,75,58,30.22,30.10,7,0,7,0.19
2013-6-24,80,72,67,70,65,61,84,80,69,30.15,30.05,4,0,4,0.53
2013-6-25,79,70,65,69,64,60,86,82,66,30.08,29.90,8,0,8,0.45
2013-6-26,76,69,65,69,63,60,89,83,71,29.94,29.89,3,0,3,0.19
2013-6-27,82,70,62,66,62,58,89,77,54,29.95,29.82,3,0,3,0.55
2013-6-28,67,63,59,62,58,54,88,84,82,29.82,29.57,0,0,0,2.39
2013-6-29,70,62,57,63,57,54,89,84,72,29.82,29.63,8,0,8,0.19
2013-6-30,81,69,58,66,61,53,89,75,59,30.05,29.82,5,0,5,0.19
2013-7-1,70,66,61,64,61,57,87,83,78,30.17,30.05,1,0,1,1.57
2013-7-2,80,70,60,70,64,56,91,83,73,30.25,30.16,6,0,6,0.30
2013-7-3,84,73,65,72,66,61,90,80,58,30.30,30.23,6,0,6,0.20
2013-7-4,81,72,66,71,66,62,88,81,67,30.32,30.22,6,0,6,0.19
2013-7-5,83,70,64,72,65,59,90,83,65,30.29,30.19,4,0,4,0.69
2013-7-6,83,73,68,67,64,59,89,76,52,30.24,30.16,7,0,7,0.19
2013-7-7,82,71,63,70,63,57,86,77,65,30.20,30.07,7,0,7,0.19
2013-7-8,83,72,67,69,64,60,86,77,60,30.18,30.07,8,0,8,0.19
2013-7-9,88,72,64,70,64,58,86,75,51,30.21,30.09,5,0,5,0.19
2013-7-10,77,72,68,70,66,64,86,82,77,30.09,29.88,8,0,8,0.24
2013-7-11,77,70,64,65,60,53,87,74,54,30.14,29.89,8,0,8,0.19
2013-7-12,81,68,53,62,56,48,84,67,52,30.32,30.15,4,0,4,0.19
2013-7-13,78,66,56,67,58,50,84,76,67,30.41,30.32,3,0,3,0.19
2013-7-14,81,74,63,70,66,58,84,74,67,30.43,30.37,2,0,2,0.19
2013-7-15,89,75,64,69,63,59,88,69,46,30.40,30.32,7,0,7,0.19
2013-7-16,91,75,62,69,63,56,85,67,46,30.38,30.32,5,0,5,0.19
2013-7-17,90,76,64,72,66,58,84,70,53,30.35,30.16,8,0,8,0.19
2013-7-18,89,77,69,71,67,63,86,72,52,30.20,30.08,9,0,9,0.19
2013-7-19,88,77,70,72,68,63,84,74,57,30.09,29.85,9,0,9,0.19
2013-7-20,79,72,66,67,61,57,84,68,53,29.99,29.84,8,0,8,0.19
2013-7-21,81,70,59,62,57,49,82,65,45,30.14,29.99,7,0,7,0.19
2013-7-22,83,59,53,66,52,46,84,77,57,30.14,29.96,0,0,0,0.51
2013-7-23,82,69,64,69,62,59,88,80,58,29.96,29.72,0,0,0,0.26
2013-7-24,67,60,49,61,53,42,85,78,69,30.15,29.74,8,0,8,0.26
2013-7-25,76,58,46,54,47,41,86,68,44,30.23,30.15,0,0,0,0.19
2013-7-26,81,57,47,60,48,41,84,72,47,30.22,30.12,0,0,0,0.19
2013-7-27,81,68,51,62,56,44,84,65,51,30.16,30.06,6,0,6,0.19
2013-7-28,73,66,62,63,59,57,83,77,65,30.08,30.02,5,0,5,0.19
2013-7-29,71,62,55,59,54,51,87,76,61,30.21,30.05,4,0,4,0.19
2013-7-30,73,62,56,58,53,50,84,74,57,30.25,30.20,5,0,5,0.19
2013-7-31,78,67,54,60,54,48,86,65,51,30.25,30.13,1,0,1,0.19
2013-8-1,69,61,55,63,54,49,85,78,72,30.13,29.92,8,0,8,0.49
2013-8-2,72,63,60,57,55,52,87,75,55,29.99,29.95,6,0,6,0.19
2013-8-3,68,63,57,55,53,51,85,72,60,30.00,29.91,9,0,9,0.45
2013-8-4,69,59,54,55,52,48,87,76,59,30.10,29.97,15,0,15,0.19
2013-8-5,71,57,48,51,46,42,85,70,47,30.17,30.09,6,0,6,0.19
2013-8-6,77,60,46,54,47,40,84,65,45,30.22,30.17,3,0,3,0.19
2013-8-7,73,64,54,61,55,47,83,73,65,30.22,30.08,8,0,8,0.19
2013-8-8,82,73,66,68,63,59,81,71,57,30.12,30.05,6,0,6,0.19
2013-8-9,74,69,65,68,63,58,87,83,77,30.07,29.92,3,0,3,0.76
2013-8-10,73,63,59,58,54,48,84,73,48,30.17,29.99,4,0,4,0.19
2013-8-11,76,66,53,55,51,46,81,59,46,30.20,30.12,6,0,6,0.19
2013-8-12,76,67,55,57,53,48,79,63,50,30.15,30.02,3,0,3,0.19
2013-8-13,70,62,56,62,55,49,84,78,72,30.02,29.83,3,0,3,0.20
2013-8-14,63,56,51,54,49,45,84,78,71,30.10,29.85,6,0,6,0.19
2013-8-15,68,57,46,52,47,41,87,71,51,30.22,30.10,9,0,9,0.19
2013-8-16,74,61,48,57,50,41,86,69,52,30.33,30.20,7,0,7,0.19
2013-8-17,78,59,49,59,50,43,83,72,45,30.40,30.33,3,0,3,0.19
2013-8-18,75,59,51,58,50,45,83,73,53,30.38,30.22,0,0,0,0.19
2013-8-19,81,58,51,60,49,44,81,72,49,30.23,30.12,7,0,7,0.19
2013-8-20,81,68,53,62,55,46,83,64,50,30.25,30.16,5,0,5,0.19
2013-8-21,82,61,54,63,52,48,86,74,50,30.28,30.15,0,0,0,0.19
2013-8-22,80,68,59,66,59,52,83,74,60,30.17,30.00,7,0,7,0.31
2013-8-23,70,61,55,58,52,45,85,75,53,30.29,30.06,0,0,0,0.19
2013-8-24,80,60,48,56,49,43,85,69,43,30.46,30.30,3,0,3,0.19
2013-8-25,79,62,50,58,50,43,83,65,41,30.47,30.23,5,0,5,0.19
2013-8-26,72,66,63,64,60,54,85,79,69,30.25,30.03,8,0,8,0.31
2013-8-27,72,67,64,67,62,59,88,85,82,30.07,30.02,0,0,0,0.19
2013-8-28,86,71,61,69,62,57,90,76,53,30.10,29.99,0,0,0,0.19
2013-8-29,84,70,60,67,60,54,87,72,52,30.16,30.08,0,0,0,0.19
2013-8-30,83,70,60,67,60,54,86,72,52,30.13,29.93,7,0,7,0.19
2013-8-31,75,69,65,69,64,60,87,83,75,29.97,29.88,2,0,2,0.43
2013-9-1,80,71,64,68,64,60,87,78,65,30.00,29.94,1,0,1,0.19
2013-9-2,78,68,61,68,62,56,86,80,65,29.95,29.80,8,0,8,0.28
2013-9-3,63,60,58,58,56,54,87,85,81,29.97,29.86,8,0,8,0.20
2013-9-4,72,62,55,57,54,50,88,77,57,30.05,29.97,8,0,8,0.19
2013-9-5,63,56,44,55,45,35,83,68,49,30.28,30.00,7,0,7,0.19
2013-9-6,70,53,39,47,40,33,83,64,40,30.34,30.18,6,0,6,0.19
2013-9-7,64,57,52,50,46,44,76,67,55,30.18,29.97,4,0,4,0.19
2013-9-8,64,56,44,54,45,35,86,68,47,30.21,29.92,7,0,7,0.19
2013-9-9,69,52,37,49,40,31,83,66,44,30.27,30.14,5,0,5,0.19
2013-9-10,75,63,51,69,58,43,89,83,73,30.16,30.05,1,0,1,0.37
2013-9-11,87,75,68,72,68,62,88,78,55,30.18,30.06,10,0,10,0.19
2013-9-12,68,66,65,63,61,60,87,83,79,30.06,29.95,1,0,1,0.19
2013-9-20,81,71,63,58,53,49,62,54,43,30.04,30.02,6,0,6,5.04
2013-9-21,71,63,58,57,52,49,79,68,56,30.03,29.73,13,1,13,0.20
2013-9-22,58,50,43,51,44,8,84,80,73,30.03,29.71,6,0,6,0.06
2013-9-23,48,43,38,39,36,33,82,77,69,30.17,30.02,5,0,5,0.00
2013-9-24,64,48,40,45,38,34,81,69,49,30.15,30.02,3,0,3,0.00
2013-9-25,71,53,39,52,42,34,86,69,49,30.09,30.01,0,0,0,0.00
2013-9-26,68,53,44,51,43,36,83,70,51,30.25,30.09,0,0,0,0.00
2013-9-27,66,50,40,53,42,34,84,74,60,30.38,30.25,1,0,1,0.00
2013-9-28,75,54,40,56,44,34,87,69,47,30.44,30.33,1,0,1,0.00
2013-9-29,75,55,41,52,43,34,85,65,42,30.33,30.14,7,0,7,0.00
2013-9-30,77,56,42,52,43,35,84,65,41,30.18,30.06,2,0,2,0.00
2013-10-1,72,56,44,57,46,36,83,68,50,30.12,30.02,7,0,7,0.00
2013-10-2,72,61,52,59,52,44,86,73,52,30.14,30.00,7,0,7,0.00
2013-10-3,74,56,42,53,44,35,82,64,44,30.22,30.12,7,0,7,0.00
2013-10-4,58,51,42,50,44,35,84,78,70,30.18,30.13,0,0,0,0.06
2013-10-5,57,55,53,53,51,49,87,85,84,30.21,30.15,0,0,0,0.02
2013-10-6,58,54,50,54,50,10,90,86,83,30.20,30.05,11,0,11,0.59
2013-10-7,69,58,47,59,53,42,89,83,70,30.05,29.73,19,2,19,0.02
2013-10-8,62,48,39,44,39,32,85,71,49,30.44,30.01,8,0,8,0.00
2013-10-9,70,47,-21,47,36,-36,86,67,43,30.51,30.39,6,0,6,0.00
2013-10-10,64,47,35,48,37,29,83,69,50,30.41,30.27,0,0,0,0.00
2013-10-11,74,51,39,50,39,33,83,66,34,30.27,30.20,0,0,0,0.00
2013-10-12,76,54,35,54,41,28,84,64,42,30.39,30.26,7,0,7,0.00
2013-10-13,74,56,42,54,44,35,84,65,45,30.44,30.35,7,0,7,0.00
2013-10-14,57,54,50,50,48,45,85,80,67,30.38,30.32,3,0,3,0.02
2013-10-15,64,54,45,54,48,18,88,79,67,30.37,30.15,7,0,7,0.00
2013-10-16,65,58,53,51,48,42,79,70,59,30.15,29.90,10,0,10,0.00
2013-10-17,57,53,50,50,47,11,83,79,72,29.96,29.76,1,0,1,0.00
2013-10-18,53,48,44,46,42,-27,86,79,65,29.99,29.74,61,0,61,0.00
2013-10-19,57,45,37,47,39,32,86,79,63,29.99,29.85,9,0,9,0.00
2013-11-2,45,40,35,40,36,30,85,84,83,29.95,29.72,0,0,0,6.02
2013-11-3,36,30,22,30,23,15,85,74,57,30.51,29.95,2,0,2,6.02
2013-11-4,39,29,18,25,19,12,81,65,54,30.66,30.51,0,0,0,6.02
2013-11-5,50,36,26,35,26,17,74,66,55,30.60,30.45,4,0,4,6.02
2013-11-6,58,44,31,45,36,24,84,72,55,30.44,29.93,12,1,12,6.02
2013-11-7,51,42,31,47,38,-25,88,84,79,29.95,29.81,16,0,16,6.02
2013-11-8,32,30,29,27,24,-8,84,78,72,30.17,29.90,8,0,8,6.02
2013-11-9,35,31,26,28,24,19,81,75,72,30.21,29.90,6,0,6,6.02
2013-11-10,38,34,30,34,30,26,87,85,82,30.03,29.78,9,0,9,6.02
2013-11-11,35,33,30,30,28,24,88,82,79,30.12,29.90,11,1,11,6.02
2013-11-12,26,20,18,22,15,12,82,80,77,30.30,30.02,4,0,4,6.02
2013-11-13,27,24,16,21,17,10,79,75,66,30.33,30.08,7,0,7,6.02
2013-11-14,36,30,26,29,23,19,78,74,70,30.10,30.05,10,0,10,6.02
2013-11-15,48,35,28,31,24,20,75,64,46,30.22,30.09,7,0,7,6.02
2013-11-16,54,37,29,36,28,22,79,68,50,30.32,29.91,6,0,6,6.02
2013-11-17,44,37,31,40,31,25,84,80,77,30.21,30.08,8,0,8,0.00